This is the latest recevied weather packets stored in our database for station/object KE5OYL. If no packets are shown the sender has not sent any weather packets the latest 10 day(s).
| Time | Temp. | Humidity | Pressure | Rain* | Wind** | Luminosity | Snow |
|---|---|---|---|---|---|---|---|
| 1777480029 | 15.56° C | 82% | 1016.7 hPa | 0 mm | - | 88 W/m² | - |
| 1777479727 | 16.11° C | 82% | 1016.2 hPa | 0 mm | - | 261 W/m² | - |
| 1777479424 | 15.56° C | 82% | 1016.5 hPa | 0 mm | - | 149 W/m² | - |
| 1777479121 | 15.56° C | 81% | 1016.5 hPa | 0 mm | - | 128 W/m² | - |
| 1777478817 | 15.56° C | 81% | 1017.1 hPa | 0 mm | - | 47 W/m² | - |
| 1777478514 | 15.56° C | 81% | 1016.7 hPa | 0 mm | - | 52 W/m² | - |
| 1777478211 | 15.56° C | 81% | 1016.1 hPa | 0 mm | - | 104 W/m² | - |
| 1777477907 | 15.56° C | 80% | 1016.1 hPa | 0 mm | - | 117 W/m² | - |
| 1777477602 | 15.56° C | 80% | 1016.4 hPa | 0 mm | - | 62 W/m² | - |
| 1777477299 | 16.11° C | 79% | 1016.5 hPa | 0 mm | - | 50 W/m² | - |
| 1777476996 | 16.11° C | 78% | 1015.9 hPa | 0 mm | - | 94 W/m² | - |
| 1777476694 | 16.11° C | 79% | 1016.2 hPa | 0 mm | - | 69 W/m² | - |
| 1777476390 | 15.56° C | 79% | 1016.7 hPa | 0 mm | - | 39 W/m² | - |
| 1777476086 | 16.11° C | 79% | 1016.4 hPa | 0 mm | - | 36 W/m² | - |
| 1777475781 | 16.11° C | 79% | 1016.9 hPa | 0 mm | - | 30 W/m² | - |
| 1777475478 | 15.56° C | 79% | 1016.3 hPa | 0 mm | - | 53 W/m² | - |
| 1777475174 | 16.11° C | 79% | 1016.6 hPa | 0 mm | - | 42 W/m² | - |
| 1777474870 | 16.11° C | 79% | 1016.4 hPa | 0 mm | - | 45 W/m² | - |
| 1777474566 | 16.11° C | 79% | 1016.4 hPa | 0 mm | - | 44 W/m² | - |
| 1777474263 | 16.11° C | 79% | 1015.8 hPa | 0 mm | - | 78 W/m² | - |
| 1777473960 | 16.11° C | 79% | 1015.7 hPa | 0 mm | - | 122 W/m² | - |
| 1777473658 | 16.11° C | 78% | 1016 hPa | 0 mm | - | 98 W/m² | - |
| 1777473354 | 16.11° C | 78% | 1016.4 hPa | 0 mm | - | 52 W/m² | - |
| 1777473050 | 16.11° C | 78% | 1016 hPa | 0 mm | - | 63 W/m² | - |
| 1777472746 | 16.11° C | 78% | 1015.7 hPa | 0 mm | - | 50 W/m² | - |
* Rain latest hour (hover to see other rain measurements)
** Current wind speed in m/s (hover to see current wind gust speed)